sensor_id;sensor_type;location;lat;lon;timestamp;temperature;humidity
20171;DHT22;10245;51.344;6.620;2024-02-26T00:00:27;7.10;76.20
20171;DHT22;10245;51.344;6.620;2024-02-26T00:02:50;7.20;75.80
20171;DHT22;10245;51.344;6.620;2024-02-26T00:05:14;7.20;76.20
20171;DHT22;10245;51.344;6.620;2024-02-26T00:07:37;7.10;75.90
20171;DHT22;10245;51.344;6.620;2024-02-26T00:10:01;7.10;75.80
20171;DHT22;10245;51.344;6.620;2024-02-26T00:12:24;7.00;76.00
20171;DHT22;10245;51.344;6.620;2024-02-26T00:14:48;7.10;76.10
20171;DHT22;10245;51.344;6.620;2024-02-26T00:17:13;7.00;75.90
20171;DHT22;10245;51.344;6.620;2024-02-26T00:19:37;7.00;77.00
20171;DHT22;10245;51.344;6.620;2024-02-26T00:22:00;7.00;76.80
20171;DHT22;10245;51.344;6.620;2024-02-26T00:24:25;7.00;76.90
20171;DHT22;10245;51.344;6.620;2024-02-26T00:26:48;7.10;76.70
20171;DHT22;10245;51.344;6.620;2024-02-26T00:29:15;7.10;76.40
20171;DHT22;10245;51.344;6.620;2024-02-26T00:31:38;7.10;77.10
20171;DHT22;10245;51.344;6.620;2024-02-26T00:34:03;7.10;77.20
20171;DHT22;10245;51.344;6.620;2024-02-26T00:36:26;7.10;76.80
20171;DHT22;10245;51.344;6.620;2024-02-26T00:38:50;7.20;77.10
20171;DHT22;10245;51.344;6.620;2024-02-26T00:41:13;7.20;77.00
20171;DHT22;10245;51.344;6.620;2024-02-26T00:43:36;7.20;77.00
20171;DHT22;10245;51.344;6.620;2024-02-26T00:46:01;7.30;77.00
20171;DHT22;10245;51.344;6.620;2024-02-26T00:48:25;7.30;76.30
20171;DHT22;10245;51.344;6.620;2024-02-26T00:50:50;7.50;76.30
20171;DHT22;10245;51.344;6.620;2024-02-26T00:53:14;7.20;77.30
20171;DHT22;10245;51.344;6.620;2024-02-26T00:55:37;7.10;77.40
20171;DHT22;10245;51.344;6.620;2024-02-26T00:58:01;7.10;78.00
20171;DHT22;10245;51.344;6.620;2024-02-26T01:00:24;7.10;78.20
20171;DHT22;10245;51.344;6.620;2024-02-26T01:02:48;7.20;78.30
20171;DHT22;10245;51.344;6.620;2024-02-26T01:05:11;7.20;77.20
20171;DHT22;10245;51.344;6.620;2024-02-26T01:07:35;7.20;77.70
20171;DHT22;10245;51.344;6.620;2024-02-26T01:09:59;7.00;78.70
20171;DHT22;10245;51.344;6.620;2024-02-26T01:12:22;7.10;78.40
20171;DHT22;10245;51.344;6.620;2024-02-26T01:14:46;7.00;78.80
20171;DHT22;10245;51.344;6.620;2024-02-26T01:17:09;7.00;78.50
20171;DHT22;10245;51.344;6.620;2024-02-26T01:19:33;7.00;78.50
20171;DHT22;10245;51.344;6.620;2024-02-26T01:21:56;7.00;78.50
20171;DHT22;10245;51.344;6.620;2024-02-26T01:24:20;7.10;78.80
20171;DHT22;10245;51.344;6.620;2024-02-26T01:26:44;7.00;78.70
20171;DHT22;10245;51.344;6.620;2024-02-26T01:29:08;7.00;78.60
20171;DHT22;10245;51.344;6.620;2024-02-26T01:31:31;7.00;77.90
20171;DHT22;10245;51.344;6.620;2024-02-26T01:33:55;7.00;78.10
20171;DHT22;10245;51.344;6.620;2024-02-26T01:36:18;7.00;78.10
20171;DHT22;10245;51.344;6.620;2024-02-26T01:38:42;7.00;78.30
20171;DHT22;10245;51.344;6.620;2024-02-26T01:41:07;7.00;78.00
20171;DHT22;10245;51.344;6.620;2024-02-26T01:43:31;6.90;78.00
20171;DHT22;10245;51.344;6.620;2024-02-26T01:45:54;7.00;78.30
20171;DHT22;10245;51.344;6.620;2024-02-26T01:48:18;6.90;77.90
20171;DHT22;10245;51.344;6.620;2024-02-26T01:50:41;6.90;78.20
20171;DHT22;10245;51.344;6.620;2024-02-26T01:53:05;6.90;77.90
20171;DHT22;10245;51.344;6.620;2024-02-26T01:55:29;6.90;78.50
20171;DHT22;10245;51.344;6.620;2024-02-26T01:57:54;6.90;78.20
20171;DHT22;10245;51.344;6.620;2024-02-26T02:00:18;6.90;78.70
20171;DHT22;10245;51.344;6.620;2024-02-26T02:02:42;6.90;79.00
20171;DHT22;10245;51.344;6.620;2024-02-26T02:05:09;6.90;79.00
20171;DHT22;10245;51.344;6.620;2024-02-26T02:07:33;7.00;78.40
20171;DHT22;10245;51.344;6.620;2024-02-26T02:09:57;7.00;79.10
20171;DHT22;10245;51.344;6.620;2024-02-26T02:12:21;7.00;78.80
20171;DHT22;10245;51.344;6.620;2024-02-26T02:14:46;7.00;78.60
20171;DHT22;10245;51.344;6.620;2024-02-26T02:17:10;6.90;79.10
20171;DHT22;10245;51.344;6.620;2024-02-26T02:19:33;7.00;79.80
20171;DHT22;10245;51.344;6.620;2024-02-26T02:21:58;7.20;80.50
20171;DHT22;10245;51.344;6.620;2024-02-26T02:24:21;7.10;81.20
20171;DHT22;10245;51.344;6.620;2024-02-26T02:26:45;7.00;81.70
20171;DHT22;10245;51.344;6.620;2024-02-26T02:29:09;6.90;81.70
20171;DHT22;10245;51.344;6.620;2024-02-26T02:31:32;6.70;81.40
20171;DHT22;10245;51.344;6.620;2024-02-26T02:33:57;6.80;81.70
20171;DHT22;10245;51.344;6.620;2024-02-26T02:36:20;6.90;82.10
20171;DHT22;10245;51.344;6.620;2024-02-26T02:38:50;6.80;82.40
20171;DHT22;10245;51.344;6.620;2024-02-26T02:41:14;6.80;82.20
20171;DHT22;10245;51.344;6.620;2024-02-26T02:43:37;6.70;82.20
20171;DHT22;10245;51.344;6.620;2024-02-26T02:46:00;6.60;82.10
20171;DHT22;10245;51.344;6.620;2024-02-26T02:48:24;6.50;82.20
20171;DHT22;10245;51.344;6.620;2024-02-26T02:50:48;6.50;81.90
20171;DHT22;10245;51.344;6.620;2024-02-26T02:53:11;6.50;82.50
20171;DHT22;10245;51.344;6.620;2024-02-26T02:55:36;6.50;82.70
20171;DHT22;10245;51.344;6.620;2024-02-26T02:57:59;6.50;83.30
20171;DHT22;10245;51.344;6.620;2024-02-26T03:00:23;6.50;83.30
20171;DHT22;10245;51.344;6.620;2024-02-26T03:02:47;6.60;84.20
20171;DHT22;10245;51.344;6.620;2024-02-26T03:05:11;6.50;84.40
20171;DHT22;10245;51.344;6.620;2024-02-26T03:07:34;6.50;85.10
20171;DHT22;10245;51.344;6.620;2024-02-26T03:09:58;6.50;85.70
20171;DHT22;10245;51.344;6.620;2024-02-26T03:12:22;6.40;85.60
20171;DHT22;10245;51.344;6.620;2024-02-26T03:14:46;6.50;86.10
20171;DHT22;10245;51.344;6.620;2024-02-26T03:17:09;6.50;86.20
20171;DHT22;10245;51.344;6.620;2024-02-26T03:19:33;6.50;86.80
20171;DHT22;10245;51.344;6.620;2024-02-26T03:21:56;6.40;87.00
20171;DHT22;10245;51.344;6.620;2024-02-26T03:24:20;6.40;87.30
20171;DHT22;10245;51.344;6.620;2024-02-26T03:26:43;6.30;87.30
20171;DHT22;10245;51.344;6.620;2024-02-26T03:29:08;6.20;87.70
20171;DHT22;10245;51.344;6.620;2024-02-26T03:31:32;6.10;87.40
20171;DHT22;10245;51.344;6.620;2024-02-26T03:33:55;6.20;87.70
20171;DHT22;10245;51.344;6.620;2024-02-26T03:36:18;6.10;87.60
20171;DHT22;10245;51.344;6.620;2024-02-26T03:38:43;6.10;87.40
20171;DHT22;10245;51.344;6.620;2024-02-26T03:41:07;6.00;87.20
20171;DHT22;10245;51.344;6.620;2024-02-26T03:43:31;6.00;87.10
20171;DHT22;10245;51.344;6.620;2024-02-26T03:45:57;6.00;87.50
20171;DHT22;10245;51.344;6.620;2024-02-26T03:48:20;6.10;87.70
20171;DHT22;10245;51.344;6.620;2024-02-26T03:50:44;6.00;87.30
20171;DHT22;10245;51.344;6.620;2024-02-26T03:53:08;6.00;87.50
20171;DHT22;10245;51.344;6.620;2024-02-26T03:55:35;6.00;87.30
20171;DHT22;10245;51.344;6.620;2024-02-26T03:57:59;5.90;87.50
20171;DHT22;10245;51.344;6.620;2024-02-26T04:00:22;6.00;87.70
20171;DHT22;10245;51.344;6.620;2024-02-26T04:02:48;6.00;87.90
20171;DHT22;10245;51.344;6.620;2024-02-26T04:05:13;5.90;87.60
20171;DHT22;10245;51.344;6.620;2024-02-26T04:07:37;5.90;87.40
20171;DHT22;10245;51.344;6.620;2024-02-26T04:10:00;5.90;87.60
20171;DHT22;10245;51.344;6.620;2024-02-26T04:12:27;5.90;87.20
20171;DHT22;10245;51.344;6.620;2024-02-26T04:14:51;6.00;87.50
20171;DHT22;10245;51.344;6.620;2024-02-26T04:17:14;5.90;87.50
20171;DHT22;10245;51.344;6.620;2024-02-26T04:19:39;5.90;87.30
20171;DHT22;10245;51.344;6.620;2024-02-26T04:22:03;5.80;87.50
20171;DHT22;10245;51.344;6.620;2024-02-26T04:24:27;5.80;87.70
20171;DHT22;10245;51.344;6.620;2024-02-26T04:26:50;5.90;87.60
20171;DHT22;10245;51.344;6.620;2024-02-26T04:29:13;5.80;88.20
20171;DHT22;10245;51.344;6.620;2024-02-26T04:31:37;5.90;88.10
20171;DHT22;10245;51.344;6.620;2024-02-26T04:34:01;5.80;88.10
20171;DHT22;10245;51.344;6.620;2024-02-26T04:36:28;5.70;87.80
20171;DHT22;10245;51.344;6.620;2024-02-26T04:38:51;5.80;88.20
20171;DHT22;10245;51.344;6.620;2024-02-26T04:41:16;5.80;88.20
20171;DHT22;10245;51.344;6.620;2024-02-26T04:43:40;5.80;88.30
20171;DHT22;10245;51.344;6.620;2024-02-26T04:46:04;5.70;88.70
20171;DHT22;10245;51.344;6.620;2024-02-26T04:48:28;5.70;88.60
20171;DHT22;10245;51.344;6.620;2024-02-26T04:50:51;5.80;88.70
20171;DHT22;10245;51.344;6.620;2024-02-26T04:53:16;5.70;89.00
20171;DHT22;10245;51.344;6.620;2024-02-26T04:55:39;5.70;88.90
20171;DHT22;10245;51.344;6.620;2024-02-26T04:58:03;5.70;89.40
20171;DHT22;10245;51.344;6.620;2024-02-26T05:00:26;5.70;89.30
20171;DHT22;10245;51.344;6.620;2024-02-26T05:02:50;5.60;89.50
20171;DHT22;10245;51.344;6.620;2024-02-26T05:05:13;5.70;89.50
20171;DHT22;10245;51.344;6.620;2024-02-26T05:07:39;5.50;89.70
20171;DHT22;10245;51.344;6.620;2024-02-26T05:10:06;5.50;89.60
20171;DHT22;10245;51.344;6.620;2024-02-26T05:12:29;5.60;90.10
20171;DHT22;10245;51.344;6.620;2024-02-26T05:14:53;5.50;89.80
20171;DHT22;10245;51.344;6.620;2024-02-26T05:17:16;5.50;90.30
20171;DHT22;10245;51.344;6.620;2024-02-26T05:19:40;5.50;90.10
20171;DHT22;10245;51.344;6.620;2024-02-26T05:22:04;5.50;90.20
20171;DHT22;10245;51.344;6.620;2024-02-26T05:24:27;5.50;90.40
20171;DHT22;10245;51.344;6.620;2024-02-26T05:26:51;5.50;90.40
20171;DHT22;10245;51.344;6.620;2024-02-26T05:29:16;5.60;90.50
20171;DHT22;10245;51.344;6.620;2024-02-26T05:31:41;5.40;90.50
20171;DHT22;10245;51.344;6.620;2024-02-26T05:34:04;5.50;90.50
20171;DHT22;10245;51.344;6.620;2024-02-26T05:36:28;5.50;90.60
20171;DHT22;10245;51.344;6.620;2024-02-26T05:38:55;5.50;90.50
20171;DHT22;10245;51.344;6.620;2024-02-26T05:41:19;5.50;91.00
20171;DHT22;10245;51.344;6.620;2024-02-26T05:43:46;5.50;90.90
20171;DHT22;10245;51.344;6.620;2024-02-26T05:46:09;5.40;90.90
20171;DHT22;10245;51.344;6.620;2024-02-26T05:48:33;5.40;91.10
20171;DHT22;10245;51.344;6.620;2024-02-26T05:50:56;5.40;91.10
20171;DHT22;10245;51.344;6.620;2024-02-26T05:53:19;5.50;91.00
20171;DHT22;10245;51.344;6.620;2024-02-26T05:55:42;5.40;90.60
20171;DHT22;10245;51.344;6.620;2024-02-26T05:58:06;5.50;91.00
20171;DHT22;10245;51.344;6.620;2024-02-26T06:00:31;5.40;91.00
20171;DHT22;10245;51.344;6.620;2024-02-26T06:02:54;5.30;90.70
20171;DHT22;10245;51.344;6.620;2024-02-26T06:05:18;5.40;91.10
20171;DHT22;10245;51.344;6.620;2024-02-26T06:07:41;5.30;91.30
20171;DHT22;10245;51.344;6.620;2024-02-26T06:10:06;5.30;91.10
20171;DHT22;10245;51.344;6.620;2024-02-26T06:12:30;5.40;91.00
20171;DHT22;10245;51.344;6.620;2024-02-26T06:14:54;5.40;91.30
20171;DHT22;10245;51.344;6.620;2024-02-26T06:17:19;5.50;91.30
20171;DHT22;10245;51.344;6.620;2024-02-26T06:19:42;5.50;90.90
20171;DHT22;10245;51.344;6.620;2024-02-26T06:22:06;5.40;90.80
20171;DHT22;10245;51.344;6.620;2024-02-26T06:24:29;5.40;91.10
20171;DHT22;10245;51.344;6.620;2024-02-26T06:26:53;5.50;91.60
20171;DHT22;10245;51.344;6.620;2024-02-26T06:29:16;5.40;91.10
20171;DHT22;10245;51.344;6.620;2024-02-26T06:31:39;5.40;91.40
20171;DHT22;10245;51.344;6.620;2024-02-26T06:34:04;5.40;91.30
20171;DHT22;10245;51.344;6.620;2024-02-26T06:36:27;5.40;91.60
20171;DHT22;10245;51.344;6.620;2024-02-26T06:38:51;5.40;91.50
20171;DHT22;10245;51.344;6.620;2024-02-26T06:41:16;5.40;91.10
20171;DHT22;10245;51.344;6.620;2024-02-26T06:43:39;5.50;91.30
20171;DHT22;10245;51.344;6.620;2024-02-26T06:46:02;5.40;91.50
20171;DHT22;10245;51.344;6.620;2024-02-26T06:48:27;5.40;91.10
20171;DHT22;10245;51.344;6.620;2024-02-26T06:50:52;5.50;91.50
20171;DHT22;10245;51.344;6.620;2024-02-26T06:53:15;5.50;91.70
20171;DHT22;10245;51.344;6.620;2024-02-26T06:55:39;5.50;91.70
20171;DHT22;10245;51.344;6.620;2024-02-26T06:58:02;5.50;91.50
20171;DHT22;10245;51.344;6.620;2024-02-26T07:00:25;5.50;91.50
20171;DHT22;10245;51.344;6.620;2024-02-26T07:02:49;5.50;91.90
20171;DHT22;10245;51.344;6.620;2024-02-26T07:05:12;5.40;91.50
20171;DHT22;10245;51.344;6.620;2024-02-26T07:07:37;5.50;91.40
20171;DHT22;10245;51.344;6.620;2024-02-26T07:10:01;5.50;91.40
20171;DHT22;10245;51.344;6.620;2024-02-26T07:12:25;5.60;91.70
20171;DHT22;10245;51.344;6.620;2024-02-26T07:14:49;5.60;91.50
20171;DHT22;10245;51.344;6.620;2024-02-26T07:17:14;5.50;91.50
20171;DHT22;10245;51.344;6.620;2024-02-26T07:19:39;5.50;91.70
20171;DHT22;10245;51.344;6.620;2024-02-26T07:22:02;5.50;91.50
20171;DHT22;10245;51.344;6.620;2024-02-26T07:24:27;5.50;91.50
20171;DHT22;10245;51.344;6.620;2024-02-26T07:26:51;5.50;91.80
20171;DHT22;10245;51.344;6.620;2024-02-26T07:29:16;5.60;92.00
20171;DHT22;10245;51.344;6.620;2024-02-26T07:31:38;5.50;91.80
20171;DHT22;10245;51.344;6.620;2024-02-26T07:34:02;5.60;92.10
20171;DHT22;10245;51.344;6.620;2024-02-26T07:36:25;5.50;91.70
20171;DHT22;10245;51.344;6.620;2024-02-26T07:38:49;5.50;92.10
20171;DHT22;10245;51.344;6.620;2024-02-26T07:41:15;5.50;92.10
20171;DHT22;10245;51.344;6.620;2024-02-26T07:43:38;5.50;91.90
20171;DHT22;10245;51.344;6.620;2024-02-26T07:46:03;5.60;92.00
20171;DHT22;10245;51.344;6.620;2024-02-26T07:48:28;5.50;92.00
20171;DHT22;10245;51.344;6.620;2024-02-26T07:50:53;5.60;92.00
20171;DHT22;10245;51.344;6.620;2024-02-26T07:53:16;5.60;92.20
20171;DHT22;10245;51.344;6.620;2024-02-26T07:55:39;5.60;92.00
20171;DHT22;10245;51.344;6.620;2024-02-26T07:58:04;5.70;92.10
20171;DHT22;10245;51.344;6.620;2024-02-26T08:00:30;5.70;92.00
20171;DHT22;10245;51.344;6.620;2024-02-26T08:02:53;5.60;92.10
20171;DHT22;10245;51.344;6.620;2024-02-26T08:05:17;5.70;92.40
20171;DHT22;10245;51.344;6.620;2024-02-26T08:07:40;5.70;92.20
20171;DHT22;10245;51.344;6.620;2024-02-26T08:10:04;5.80;92.30
20171;DHT22;10245;51.344;6.620;2024-02-26T08:12:28;5.70;92.20
20171;DHT22;10245;51.344;6.620;2024-02-26T08:14:53;5.70;92.10
20171;DHT22;10245;51.344;6.620;2024-02-26T08:17:17;5.70;92.10
20171;DHT22;10245;51.344;6.620;2024-02-26T08:19:40;5.60;92.30
20171;DHT22;10245;51.344;6.620;2024-02-26T08:22:04;5.80;92.40
20171;DHT22;10245;51.344;6.620;2024-02-26T08:24:27;5.70;92.20
20171;DHT22;10245;51.344;6.620;2024-02-26T08:26:51;5.80;92.40
20171;DHT22;10245;51.344;6.620;2024-02-26T08:29:14;5.80;92.50
20171;DHT22;10245;51.344;6.620;2024-02-26T08:31:39;5.80;92.50
20171;DHT22;10245;51.344;6.620;2024-02-26T08:34:02;5.80;92.10
20171;DHT22;10245;51.344;6.620;2024-02-26T08:36:26;5.90;92.20
20171;DHT22;10245;51.344;6.620;2024-02-26T08:38:50;5.80;92.30
20171;DHT22;10245;51.344;6.620;2024-02-26T08:41:13;5.70;92.30
20171;DHT22;10245;51.344;6.620;2024-02-26T08:43:36;5.70;92.10
20171;DHT22;10245;51.344;6.620;2024-02-26T08:46:00;5.70;92.40
20171;DHT22;10245;51.344;6.620;2024-02-26T08:48:25;5.80;92.40
20171;DHT22;10245;51.344;6.620;2024-02-26T08:50:48;5.80;92.50
20171;DHT22;10245;51.344;6.620;2024-02-26T08:53:12;5.80;92.20
20171;DHT22;10245;51.344;6.620;2024-02-26T08:55:39;5.90;92.10
20171;DHT22;10245;51.344;6.620;2024-02-26T08:58:02;5.80;92.50
20171;DHT22;10245;51.344;6.620;2024-02-26T09:00:26;5.80;92.30
20171;DHT22;10245;51.344;6.620;2024-02-26T09:02:50;5.80;92.20
20171;DHT22;10245;51.344;6.620;2024-02-26T09:05:15;5.80;92.20
20171;DHT22;10245;51.344;6.620;2024-02-26T09:07:38;5.80;92.30
20171;DHT22;10245;51.344;6.620;2024-02-26T09:10:02;5.90;92.40
20171;DHT22;10245;51.344;6.620;2024-02-26T09:12:26;5.90;92.30
20171;DHT22;10245;51.344;6.620;2024-02-26T09:14:49;5.90;92.40
20171;DHT22;10245;51.344;6.620;2024-02-26T09:17:12;5.90;92.40
20171;DHT22;10245;51.344;6.620;2024-02-26T09:19:36;5.90;92.20
20171;DHT22;10245;51.344;6.620;2024-02-26T09:22:02;5.90;92.40
20171;DHT22;10245;51.344;6.620;2024-02-26T09:24:26;6.00;92.10
20171;DHT22;10245;51.344;6.620;2024-02-26T09:26:49;5.90;92.20
20171;DHT22;10245;51.344;6.620;2024-02-26T09:29:13;5.90;92.20
20171;DHT22;10245;51.344;6.620;2024-02-26T09:31:36;5.90;92.30
20171;DHT22;10245;51.344;6.620;2024-02-26T09:34:02;6.00;92.40
20171;DHT22;10245;51.344;6.620;2024-02-26T09:36:26;5.90;92.00
20171;DHT22;10245;51.344;6.620;2024-02-26T09:38:52;6.00;92.40
20171;DHT22;10245;51.344;6.620;2024-02-26T09:41:23;6.00;92.30
20171;DHT22;10245;51.344;6.620;2024-02-26T09:43:48;6.00;92.40
20171;DHT22;10245;51.344;6.620;2024-02-26T09:46:12;5.90;92.30
20171;DHT22;10245;51.344;6.620;2024-02-26T09:48:36;6.00;92.60
20171;DHT22;10245;51.344;6.620;2024-02-26T09:51:02;5.90;92.50
20171;DHT22;10245;51.344;6.620;2024-02-26T09:53:26;6.00;92.40
20171;DHT22;10245;51.344;6.620;2024-02-26T09:55:52;6.00;92.30
20171;DHT22;10245;51.344;6.620;2024-02-26T09:58:16;6.00;92.20
20171;DHT22;10245;51.344;6.620;2024-02-26T10:00:41;6.00;92.50
20171;DHT22;10245;51.344;6.620;2024-02-26T10:03:05;6.00;92.00
20171;DHT22;10245;51.344;6.620;2024-02-26T10:05:29;6.00;92.20
20171;DHT22;10245;51.344;6.620;2024-02-26T10:07:53;6.10;92.60
20171;DHT22;10245;51.344;6.620;2024-02-26T10:10:18;6.00;92.10
20171;DHT22;10245;51.344;6.620;2024-02-26T10:12:42;6.00;92.50
20171;DHT22;10245;51.344;6.620;2024-02-26T10:15:07;6.00;92.40
20171;DHT22;10245;51.344;6.620;2024-02-26T10:17:31;6.00;92.70
20171;DHT22;10245;51.344;6.620;2024-02-26T10:19:55;6.10;92.40
20171;DHT22;10245;51.344;6.620;2024-02-26T10:22:34;6.00;92.30
20171;DHT22;10245;51.344;6.620;2024-02-26T10:24:57;6.30;92.30
20171;DHT22;10245;51.344;6.620;2024-02-26T10:27:21;6.20;92.20
20171;DHT22;10245;51.344;6.620;2024-02-26T10:29:46;6.20;92.40
20171;DHT22;10245;51.344;6.620;2024-02-26T10:32:10;6.20;92.40
20171;DHT22;10245;51.344;6.620;2024-02-26T10:34:35;6.20;92.10
20171;DHT22;10245;51.344;6.620;2024-02-26T10:37:01;6.20;92.50
20171;DHT22;10245;51.344;6.620;2024-02-26T10:39:25;6.20;92.50
20171;DHT22;10245;51.344;6.620;2024-02-26T10:41:48;6.20;92.20
20171;DHT22;10245;51.344;6.620;2024-02-26T10:44:12;6.20;92.50
20171;DHT22;10245;51.344;6.620;2024-02-26T10:46:41;6.30;92.30
20171;DHT22;10245;51.344;6.620;2024-02-26T10:49:05;6.50;92.60
20171;DHT22;10245;51.344;6.620;2024-02-26T10:51:31;6.30;92.20
20171;DHT22;10245;51.344;6.620;2024-02-26T10:53:56;6.30;92.20
20171;DHT22;10245;51.344;6.620;2024-02-26T10:56:24;6.20;92.50
20171;DHT22;10245;51.344;6.620;2024-02-26T10:58:49;6.20;92.50
20171;DHT22;10245;51.344;6.620;2024-02-26T11:01:13;6.20;92.30
20171;DHT22;10245;51.344;6.620;2024-02-26T11:03:39;6.20;92.30
20171;DHT22;10245;51.344;6.620;2024-02-26T11:06:04;6.30;92.60
20171;DHT22;10245;51.344;6.620;2024-02-26T11:08:28;6.30;92.50
20171;DHT22;10245;51.344;6.620;2024-02-26T11:10:55;6.20;92.50
20171;DHT22;10245;51.344;6.620;2024-02-26T11:13:19;6.10;92.50
20171;DHT22;10245;51.344;6.620;2024-02-26T11:15:46;6.00;92.50
20171;DHT22;10245;51.344;6.620;2024-02-26T11:18:10;6.00;92.30
20171;DHT22;10245;51.344;6.620;2024-02-26T11:20:39;6.00;92.60
20171;DHT22;10245;51.344;6.620;2024-02-26T11:23:03;6.10;92.20
20171;DHT22;10245;51.344;6.620;2024-02-26T11:25:26;6.20;92.50
20171;DHT22;10245;51.344;6.620;2024-02-26T11:27:54;6.10;92.40
20171;DHT22;10245;51.344;6.620;2024-02-26T11:30:21;6.20;92.70
20171;DHT22;10245;51.344;6.620;2024-02-26T11:32:46;6.30;92.40
20171;DHT22;10245;51.344;6.620;2024-02-26T11:35:10;6.20;92.20
20171;DHT22;10245;51.344;6.620;2024-02-26T11:37:39;6.30;92.40
20171;DHT22;10245;51.344;6.620;2024-02-26T11:40:10;6.40;92.50
20171;DHT22;10245;51.344;6.620;2024-02-26T11:42:43;6.40;92.40
20171;DHT22;10245;51.344;6.620;2024-02-26T11:45:51;6.50;92.40
20171;DHT22;10245;51.344;6.620;2024-02-26T11:48:22;6.50;92.80
20171;DHT22;10245;51.344;6.620;2024-02-26T11:50:48;6.60;92.70
20171;DHT22;10245;51.344;6.620;2024-02-26T11:53:22;6.70;92.50
20171;DHT22;10245;51.344;6.620;2024-02-26T11:55:47;6.50;92.40
20171;DHT22;10245;51.344;6.620;2024-02-26T11:58:11;6.60;92.60
20171;DHT22;10245;51.344;6.620;2024-02-26T12:00:34;6.60;92.20
20171;DHT22;10245;51.344;6.620;2024-02-26T12:03:01;6.50;91.80
20171;DHT22;10245;51.344;6.620;2024-02-26T12:05:31;6.50;92.20
20171;DHT22;10245;51.344;6.620;2024-02-26T12:07:59;6.50;92.30
20171;DHT22;10245;51.344;6.620;2024-02-26T12:10:30;6.50;92.10
20171;DHT22;10245;51.344;6.620;2024-02-26T12:13:02;6.60;92.20
20171;DHT22;10245;51.344;6.620;2024-02-26T12:15:31;6.70;92.30
20171;DHT22;10245;51.344;6.620;2024-02-26T12:17:54;6.70;92.20
20171;DHT22;10245;51.344;6.620;2024-02-26T12:20:20;6.80;92.40
20171;DHT22;10245;51.344;6.620;2024-02-26T12:22:45;6.80;92.40
20171;DHT22;10245;51.344;6.620;2024-02-26T12:25:09;6.90;92.10
20171;DHT22;10245;51.344;6.620;2024-02-26T12:27:32;6.90;92.30
20171;DHT22;10245;51.344;6.620;2024-02-26T12:29:56;6.80;92.40
20171;DHT22;10245;51.344;6.620;2024-02-26T12:32:19;6.80;92.30
20171;DHT22;10245;51.344;6.620;2024-02-26T12:34:42;6.80;92.00
20171;DHT22;10245;51.344;6.620;2024-02-26T12:37:08;6.90;92.00
20171;DHT22;10245;51.344;6.620;2024-02-26T12:39:33;6.90;92.20
20171;DHT22;10245;51.344;6.620;2024-02-26T12:41:58;6.80;92.20
20171;DHT22;10245;51.344;6.620;2024-02-26T12:44:25;6.80;92.00
20171;DHT22;10245;51.344;6.620;2024-02-26T12:46:49;7.00;92.00
20171;DHT22;10245;51.344;6.620;2024-02-26T12:49:15;6.90;92.10
20171;DHT22;10245;51.344;6.620;2024-02-26T12:51:40;6.90;91.90
20171;DHT22;10245;51.344;6.620;2024-02-26T12:54:05;7.00;91.90
20171;DHT22;10245;51.344;6.620;2024-02-26T12:56:29;6.90;92.20
20171;DHT22;10245;51.344;6.620;2024-02-26T12:58:53;7.00;92.20
20171;DHT22;10245;51.344;6.620;2024-02-26T13:01:18;6.90;92.30
20171;DHT22;10245;51.344;6.620;2024-02-26T13:03:44;6.90;92.20
20171;DHT22;10245;51.344;6.620;2024-02-26T13:06:08;6.70;92.00
20171;DHT22;10245;51.344;6.620;2024-02-26T13:08:32;6.80;92.30
20171;DHT22;10245;51.344;6.620;2024-02-26T13:10:58;6.90;92.50
20171;DHT22;10245;51.344;6.620;2024-02-26T13:13:23;7.00;92.20
20171;DHT22;10245;51.344;6.620;2024-02-26T13:15:46;7.00;92.60
20171;DHT22;10245;51.344;6.620;2024-02-26T13:18:13;7.10;92.30
20171;DHT22;10245;51.344;6.620;2024-02-26T13:20:37;7.10;92.40
20171;DHT22;10245;51.344;6.620;2024-02-26T13:23:02;7.00;92.30
20171;DHT22;10245;51.344;6.620;2024-02-26T13:25:27;7.00;92.30
20171;DHT22;10245;51.344;6.620;2024-02-26T13:27:52;7.10;92.00
20171;DHT22;10245;51.344;6.620;2024-02-26T13:30:15;7.00;92.10
20171;DHT22;10245;51.344;6.620;2024-02-26T13:32:41;7.00;92.10
20171;DHT22;10245;51.344;6.620;2024-02-26T13:35:06;6.90;91.40
20171;DHT22;10245;51.344;6.620;2024-02-26T13:37:30;7.00;91.60
20171;DHT22;10245;51.344;6.620;2024-02-26T13:39:54;7.00;91.90
20171;DHT22;10245;51.344;6.620;2024-02-26T13:42:17;7.00;91.20
20171;DHT22;10245;51.344;6.620;2024-02-26T13:44:42;6.90;91.30
20171;DHT22;10245;51.344;6.620;2024-02-26T13:47:05;7.00;91.50
20171;DHT22;10245;51.344;6.620;2024-02-26T13:49:28;7.00;91.50
20171;DHT22;10245;51.344;6.620;2024-02-26T13:51:52;7.00;91.70
20171;DHT22;10245;51.344;6.620;2024-02-26T13:54:15;7.10;91.90
20171;DHT22;10245;51.344;6.620;2024-02-26T13:56:37;7.10;91.40
20171;DHT22;10245;51.344;6.620;2024-02-26T13:59:00;7.00;91.20
20171;DHT22;10245;51.344;6.620;2024-02-26T14:01:30;6.90;90.70
20171;DHT22;10245;51.344;6.620;2024-02-26T14:03:55;6.80;90.70
20171;DHT22;10245;51.344;6.620;2024-02-26T14:06:19;7.00;90.40
20171;DHT22;10245;51.344;6.620;2024-02-26T14:08:43;7.00;90.50
20171;DHT22;10245;51.344;6.620;2024-02-26T14:11:07;7.00;90.50
20171;DHT22;10245;51.344;6.620;2024-02-26T14:13:31;7.00;90.50
20171;DHT22;10245;51.344;6.620;2024-02-26T14:15:58;7.00;90.60
20171;DHT22;10245;51.344;6.620;2024-02-26T14:18:23;7.00;90.80
20171;DHT22;10245;51.344;6.620;2024-02-26T14:20:46;7.00;90.30
20171;DHT22;10245;51.344;6.620;2024-02-26T14:23:10;7.00;90.60
20171;DHT22;10245;51.344;6.620;2024-02-26T14:25:34;7.00;89.80
20171;DHT22;10245;51.344;6.620;2024-02-26T14:27:58;7.20;90.50
20171;DHT22;10245;51.344;6.620;2024-02-26T14:30:24;7.10;90.40
20171;DHT22;10245;51.344;6.620;2024-02-26T14:32:48;7.00;90.10
20171;DHT22;10245;51.344;6.620;2024-02-26T14:35:13;7.00;90.20
20171;DHT22;10245;51.344;6.620;2024-02-26T14:37:38;7.10;90.60
20171;DHT22;10245;51.344;6.620;2024-02-26T14:40:05;7.10;90.40
20171;DHT22;10245;51.344;6.620;2024-02-26T14:42:30;7.00;90.10
20171;DHT22;10245;51.344;6.620;2024-02-26T14:44:53;7.00;89.90
20171;DHT22;10245;51.344;6.620;2024-02-26T14:47:17;7.20;90.00
20171;DHT22;10245;51.344;6.620;2024-02-26T14:49:40;7.00;89.90
20171;DHT22;10245;51.344;6.620;2024-02-26T14:52:05;7.00;90.20
20171;DHT22;10245;51.344;6.620;2024-02-26T14:54:28;7.00;90.00
20171;DHT22;10245;51.344;6.620;2024-02-26T14:56:54;7.00;89.90
20171;DHT22;10245;51.344;6.620;2024-02-26T14:59:18;7.00;90.30
20171;DHT22;10245;51.344;6.620;2024-02-26T15:01:41;7.00;90.20
20171;DHT22;10245;51.344;6.620;2024-02-26T15:04:06;6.80;90.20
20171;DHT22;10245;51.344;6.620;2024-02-26T15:06:30;6.80;90.30
20171;DHT22;10245;51.344;6.620;2024-02-26T15:08:55;6.80;90.30
20171;DHT22;10245;51.344;6.620;2024-02-26T15:11:19;6.90;90.60
20171;DHT22;10245;51.344;6.620;2024-02-26T15:13:42;6.80;90.40
20171;DHT22;10245;51.344;6.620;2024-02-26T15:16:06;6.80;90.10
20171;DHT22;10245;51.344;6.620;2024-02-26T15:18:31;6.80;90.30
20171;DHT22;10245;51.344;6.620;2024-02-26T15:20:55;6.70;90.40
20171;DHT22;10245;51.344;6.620;2024-02-26T15:23:18;6.70;89.90
20171;DHT22;10245;51.344;6.620;2024-02-26T15:25:43;6.70;89.70